Chittenango, New York
Current Conditions -  °F | °C
As of 5:54 PM on Friday 28 Nov 2014 (Local Time) from KSYR Reporting Station
Light Snow Light Snow  
Wind Chill: 14°   Ceiling: 4400
Heat Index: 25°   Visibility: 9mi
Dew Point: 14°   Wind: 13mph
Humidity: 63%   Direction: 240°WSW
Pressure: 30.22"   Gusts: NA
Location:  43.05°N, 75.87°W
Report Text: KSYR 282254Z 24011KT 9SM -SN OVC044 M04/M10 A3022 RMK AO2 SLP236 PCPN VRY LGT P0000 T10391100
Loading
Personal Weather Stations






























Interactive Weather Map New forecast layout! Learn more

10-Day Weather Forecast

Advertisements
Track Severe Weather on mobile